sensor_id;sensor_type;location;lat;lon;timestamp;P1;durP1;ratioP1;P2;durP2;ratioP2
20593;SDS011;10455;48.732;10.266;2023-08-01T00:01:40;9.85;;;7.72;;
20593;SDS011;10455;48.732;10.266;2023-08-01T00:06:41;13.98;;;8.45;;
20593;SDS011;10455;48.732;10.266;2023-08-01T00:11:45;12.73;;;8.90;;
20593;SDS011;10455;48.732;10.266;2023-08-01T00:16:47;14.60;;;10.40;;
20593;SDS011;10455;48.732;10.266;2023-08-01T00:21:49;14.40;;;8.82;;
20593;SDS011;10455;48.732;10.266;2023-08-01T00:26:52;10.07;;;7.50;;
20593;SDS011;10455;48.732;10.266;2023-08-01T00:31:56;9.50;;;7.32;;
20593;SDS011;10455;48.732;10.266;2023-08-01T00:36:57;9.73;;;7.13;;
20593;SDS011;10455;48.732;10.266;2023-08-01T00:42:01;9.65;;;7.78;;
20593;SDS011;10455;48.732;10.266;2023-08-01T00:47:03;10.55;;;7.90;;
20593;SDS011;10455;48.732;10.266;2023-08-01T00:52:05;10.82;;;6.93;;
20593;SDS011;10455;48.732;10.266;2023-08-01T00:57:09;10.60;;;8.07;;
20593;SDS011;10455;48.732;10.266;2023-08-01T01:02:11;12.25;;;8.02;;
20593;SDS011;10455;48.732;10.266;2023-08-01T01:07:13;10.75;;;8.10;;
20593;SDS011;10455;48.732;10.266;2023-08-01T01:12:19;12.00;;;8.82;;
20593;SDS011;10455;48.732;10.266;2023-08-01T01:17:21;13.07;;;8.27;;
20593;SDS011;10455;48.732;10.266;2023-08-01T01:22:24;12.25;;;7.15;;
20593;SDS011;10455;48.732;10.266;2023-08-01T01:27:26;10.98;;;7.72;;
20593;SDS011;10455;48.732;10.266;2023-08-01T01:32:29;11.73;;;7.72;;
20593;SDS011;10455;48.732;10.266;2023-08-01T01:37:33;9.73;;;7.97;;
20593;SDS011;10455;48.732;10.266;2023-08-01T01:42:35;9.60;;;7.90;;
20593;SDS011;10455;48.732;10.266;2023-08-01T01:47:37;9.15;;;8.10;;
20593;SDS011;10455;48.732;10.266;2023-08-01T01:52:40;9.50;;;7.65;;
20593;SDS011;10455;48.732;10.266;2023-08-01T01:57:42;11.07;;;8.48;;
20593;SDS011;10455;48.732;10.266;2023-08-01T02:02:44;13.55;;;8.85;;
20593;SDS011;10455;48.732;10.266;2023-08-01T02:07:47;9.20;;;6.70;;
20593;SDS011;10455;48.732;10.266;2023-08-01T02:12:49;9.02;;;8.13;;
20593;SDS011;10455;48.732;10.266;2023-08-01T02:17:51;11.38;;;8.02;;
20593;SDS011;10455;48.732;10.266;2023-08-01T02:22:55;10.48;;;7.90;;
20593;SDS011;10455;48.732;10.266;2023-08-01T02:27:57;14.52;;;8.88;;
20593;SDS011;10455;48.732;10.266;2023-08-01T02:32:58;11.23;;;9.10;;
20593;SDS011;10455;48.732;10.266;2023-08-01T02:38:02;10.55;;;6.70;;
20593;SDS011;10455;48.732;10.266;2023-08-01T02:43:04;11.57;;;8.13;;
20593;SDS011;10455;48.732;10.266;2023-08-01T02:48:06;11.40;;;8.75;;
20593;SDS011;10455;48.732;10.266;2023-08-01T02:53:09;9.90;;;8.82;;
20593;SDS011;10455;48.732;10.266;2023-08-01T02:58:11;8.48;;;7.45;;
20593;SDS011;10455;48.732;10.266;2023-08-01T03:03:13;14.45;;;8.60;;
20593;SDS011;10455;48.732;10.266;2023-08-01T03:08:16;11.88;;;5.88;;
20593;SDS011;10455;48.732;10.266;2023-08-01T03:13:18;10.73;;;7.55;;
20593;SDS011;10455;48.732;10.266;2023-08-01T03:18:20;14.45;;;8.00;;
20593;SDS011;10455;48.732;10.266;2023-08-01T03:23:24;9.43;;;8.32;;
20593;SDS011;10455;48.732;10.266;2023-08-01T03:28:26;11.40;;;8.95;;
20593;SDS011;10455;48.732;10.266;2023-08-01T03:33:28;10.27;;;9.20;;
20593;SDS011;10455;48.732;10.266;2023-08-01T03:38:31;11.65;;;9.68;;
20593;SDS011;10455;48.732;10.266;2023-08-01T03:43:33;10.68;;;8.95;;
20593;SDS011;10455;48.732;10.266;2023-08-01T03:48:35;10.38;;;6.75;;
20593;SDS011;10455;48.732;10.266;2023-08-01T03:53:39;11.82;;;7.72;;
20593;SDS011;10455;48.732;10.266;2023-08-01T03:58:42;13.60;;;8.05;;
20593;SDS011;10455;48.732;10.266;2023-08-01T04:03:43;10.05;;;8.80;;
20593;SDS011;10455;48.732;10.266;2023-08-01T04:08:47;12.85;;;8.20;;
20593;SDS011;10455;48.732;10.266;2023-08-01T04:13:49;12.05;;;7.28;;
20593;SDS011;10455;48.732;10.266;2023-08-01T04:18:50;12.55;;;7.75;;
20593;SDS011;10455;48.732;10.266;2023-08-01T04:23:54;10.10;;;6.38;;
20593;SDS011;10455;48.732;10.266;2023-08-01T04:28:56;11.45;;;8.65;;
20593;SDS011;10455;48.732;10.266;2023-08-01T04:33:58;14.93;;;10.50;;
20593;SDS011;10455;48.732;10.266;2023-08-01T04:39:01;13.45;;;10.80;;
20593;SDS011;10455;48.732;10.266;2023-08-01T04:44:03;16.90;;;11.50;;
20593;SDS011;10455;48.732;10.266;2023-08-01T04:49:05;20.45;;;11.60;;
20593;SDS011;10455;48.732;10.266;2023-08-01T04:54:08;18.38;;;11.90;;
20593;SDS011;10455;48.732;10.266;2023-08-01T04:59:10;14.40;;;10.88;;
20593;SDS011;10455;48.732;10.266;2023-08-01T05:04:12;16.38;;;11.05;;
20593;SDS011;10455;48.732;10.266;2023-08-01T05:09:15;13.63;;;9.88;;
20593;SDS011;10455;48.732;10.266;2023-08-01T05:14:17;10.30;;;8.38;;
20593;SDS011;10455;48.732;10.266;2023-08-01T05:19:19;13.55;;;8.63;;
20593;SDS011;10455;48.732;10.266;2023-08-01T05:24:22;9.23;;;7.65;;
20593;SDS011;10455;48.732;10.266;2023-08-01T05:29:24;9.95;;;7.68;;
20593;SDS011;10455;48.732;10.266;2023-08-01T05:34:26;11.32;;;8.52;;
20593;SDS011;10455;48.732;10.266;2023-08-01T05:39:29;14.77;;;8.75;;
20593;SDS011;10455;48.732;10.266;2023-08-01T05:44:32;11.15;;;7.78;;
20593;SDS011;10455;48.732;10.266;2023-08-01T05:49:34;9.38;;;7.43;;
20593;SDS011;10455;48.732;10.266;2023-08-01T05:54:37;9.27;;;7.78;;
20593;SDS011;10455;48.732;10.266;2023-08-01T05:59:39;10.98;;;8.50;;
20593;SDS011;10455;48.732;10.266;2023-08-01T06:04:41;10.35;;;8.27;;
20593;SDS011;10455;48.732;10.266;2023-08-01T06:09:44;9.35;;;7.05;;
20593;SDS011;10455;48.732;10.266;2023-08-01T06:14:46;10.75;;;7.60;;
20593;SDS011;10455;48.732;10.266;2023-08-01T06:19:48;10.50;;;7.18;;
20593;SDS011;10455;48.732;10.266;2023-08-01T06:24:52;6.95;;;6.25;;
20593;SDS011;10455;48.732;10.266;2023-08-01T06:29:54;6.28;;;5.47;;
20593;SDS011;10455;48.732;10.266;2023-08-01T06:34:56;6.82;;;5.72;;
20593;SDS011;10455;48.732;10.266;2023-08-01T06:40:00;6.97;;;6.18;;
20593;SDS011;10455;48.732;10.266;2023-08-01T06:45:03;8.98;;;5.72;;
20593;SDS011;10455;48.732;10.266;2023-08-01T06:50:05;7.13;;;5.70;;
20593;SDS011;10455;48.732;10.266;2023-08-01T06:55:09;7.93;;;6.47;;
20593;SDS011;10455;48.732;10.266;2023-08-01T07:00:11;7.90;;;4.88;;
20593;SDS011;10455;48.732;10.266;2023-08-01T07:05:14;10.40;;;6.55;;
20593;SDS011;10455;48.732;10.266;2023-08-01T07:10:17;11.38;;;6.90;;
20593;SDS011;10455;48.732;10.266;2023-08-01T07:15:20;9.65;;;7.65;;
20593;SDS011;10455;48.732;10.266;2023-08-01T07:20:22;10.25;;;9.05;;
20593;SDS011;10455;48.732;10.266;2023-08-01T07:25:25;13.10;;;9.25;;
20593;SDS011;10455;48.732;10.266;2023-08-01T07:30:27;11.68;;;8.68;;
20593;SDS011;10455;48.732;10.266;2023-08-01T07:35:29;11.95;;;9.57;;
20593;SDS011;10455;48.732;10.266;2023-08-01T07:40:35;15.10;;;10.43;;
20593;SDS011;10455;48.732;10.266;2023-08-01T07:45:37;13.07;;;10.32;;
20593;SDS011;10455;48.732;10.266;2023-08-01T07:50:39;12.13;;;10.40;;
20593;SDS011;10455;48.732;10.266;2023-08-01T07:55:43;15.45;;;11.45;;
20593;SDS011;10455;48.732;10.266;2023-08-01T08:00:44;14.60;;;11.20;;
20593;SDS011;10455;48.732;10.266;2023-08-01T08:05:47;13.80;;;10.02;;
20593;SDS011;10455;48.732;10.266;2023-08-01T08:10:50;12.02;;;9.98;;
20593;SDS011;10455;48.732;10.266;2023-08-01T08:15:52;14.90;;;8.32;;
20593;SDS011;10455;48.732;10.266;2023-08-01T08:20:56;9.48;;;8.30;;
20593;SDS011;10455;48.732;10.266;2023-08-01T08:26:00;8.88;;;6.95;;
20593;SDS011;10455;48.732;10.266;2023-08-01T08:31:02;11.40;;;8.52;;
20593;SDS011;10455;48.732;10.266;2023-08-01T08:36:04;15.35;;;10.43;;
20593;SDS011;10455;48.732;10.266;2023-08-01T08:41:08;28.45;;;11.55;;
20593;SDS011;10455;48.732;10.266;2023-08-01T08:46:12;17.73;;;10.25;;
20593;SDS011;10455;48.732;10.266;2023-08-01T08:51:17;20.65;;;9.95;;
20593;SDS011;10455;48.732;10.266;2023-08-01T08:56:21;14.95;;;8.45;;
20593;SDS011;10455;48.732;10.266;2023-08-01T09:01:23;16.08;;;5.53;;
20593;SDS011;10455;48.732;10.266;2023-08-01T09:06:28;0.20;;;0.20;;
20593;SDS011;10455;48.732;10.266;2023-08-01T09:11:39;0.30;;;0.30;;
20593;SDS011;10455;48.732;10.266;2023-08-01T09:16:45;0.68;;;0.68;;
20593;SDS011;10455;48.732;10.266;2023-08-01T09:21:48;0.57;;;0.57;;
20593;SDS011;10455;48.732;10.266;2023-08-01T09:26:52;0.13;;;0.13;;
20593;SDS011;10455;48.732;10.266;2023-08-01T09:32:11;0.20;;;0.20;;
20593;SDS011;10455;48.732;10.266;2023-08-01T09:37:14;0.20;;;0.20;;
20593;SDS011;10455;48.732;10.266;2023-08-01T09:42:17;0.20;;;0.20;;
20593;SDS011;10455;48.732;10.266;2023-08-01T09:47:19;0.20;;;0.20;;
20593;SDS011;10455;48.732;10.266;2023-08-01T09:52:26;0.17;;;0.17;;
20593;SDS011;10455;48.732;10.266;2023-08-01T09:57:30;0.20;;;0.20;;
20593;SDS011;10455;48.732;10.266;2023-08-01T10:02:32;0.20;;;0.20;;
20593;SDS011;10455;48.732;10.266;2023-08-01T10:07:35;0.10;;;0.10;;
20593;SDS011;10455;48.732;10.266;2023-08-01T10:12:40;0.10;;;0.10;;
20593;SDS011;10455;48.732;10.266;2023-08-01T10:17:48;0.20;;;0.20;;
20593;SDS011;10455;48.732;10.266;2023-08-01T10:22:50;0.10;;;0.10;;
20593;SDS011;10455;48.732;10.266;2023-08-01T10:28:00;0.15;;;0.15;;
20593;SDS011;10455;48.732;10.266;2023-08-01T10:33:03;0.20;;;0.20;;
20593;SDS011;10455;48.732;10.266;2023-08-01T10:38:05;0.57;;;0.57;;
20593;SDS011;10455;48.732;10.266;2023-08-01T10:43:20;1.13;;;1.13;;
20593;SDS011;10455;48.732;10.266;2023-08-01T10:48:23;0.10;;;0.10;;
20593;SDS011;10455;48.732;10.266;2023-08-01T10:53:26;0.17;;;0.17;;
20593;SDS011;10455;48.732;10.266;2023-08-01T10:58:40;0.20;;;0.20;;
20593;SDS011;10455;48.732;10.266;2023-08-01T11:03:42;0.20;;;0.20;;
20593;SDS011;10455;48.732;10.266;2023-08-01T11:08:44;0.20;;;0.20;;
20593;SDS011;10455;48.732;10.266;2023-08-01T11:13:51;0.20;;;0.20;;
20593;SDS011;10455;48.732;10.266;2023-08-01T11:18:56;0.20;;;0.20;;
20593;SDS011;10455;48.732;10.266;2023-08-01T11:23:58;0.10;;;0.10;;
20593;SDS011;10455;48.732;10.266;2023-08-01T11:29:04;0.10;;;0.10;;
20593;SDS011;10455;48.732;10.266;2023-08-01T11:34:06;0.20;;;0.20;;
20593;SDS011;10455;48.732;10.266;2023-08-01T11:39:10;0.30;;;0.30;;
20593;SDS011;10455;48.732;10.266;2023-08-01T11:49:57;0.20;;;0.20;;
20593;SDS011;10455;48.732;10.266;2023-08-01T11:54:59;0.13;;;0.13;;
20593;SDS011;10455;48.732;10.266;2023-08-01T12:00:01;0.10;;;0.10;;
20593;SDS011;10455;48.732;10.266;2023-08-01T12:05:05;0.20;;;0.20;;
20593;SDS011;10455;48.732;10.266;2023-08-01T12:10:09;0.40;;;0.40;;
20593;SDS011;10455;48.732;10.266;2023-08-01T12:15:11;0.40;;;0.40;;
20593;SDS011;10455;48.732;10.266;2023-08-01T12:20:16;0.50;;;0.50;;
20593;SDS011;10455;48.732;10.266;2023-08-01T12:25:18;0.60;;;0.60;;
20593;SDS011;10455;48.732;10.266;2023-08-01T12:30:20;0.60;;;0.60;;
20593;SDS011;10455;48.732;10.266;2023-08-01T12:35:23;0.70;;;0.70;;
20593;SDS011;10455;48.732;10.266;2023-08-01T12:40:25;0.70;;;0.70;;
20593;SDS011;10455;48.732;10.266;2023-08-01T12:45:27;1.38;;;1.38;;
20593;SDS011;10455;48.732;10.266;2023-08-01T12:50:30;0.80;;;0.80;;
20593;SDS011;10455;48.732;10.266;2023-08-01T12:55:32;0.80;;;0.80;;
20593;SDS011;10455;48.732;10.266;2023-08-01T13:00:34;0.80;;;0.80;;
20593;SDS011;10455;48.732;10.266;2023-08-01T13:05:38;0.95;;;0.95;;
20593;SDS011;10455;48.732;10.266;2023-08-01T13:10:41;2.05;;;1.85;;
20593;SDS011;10455;48.732;10.266;2023-08-01T13:15:45;2.15;;;1.75;;
20593;SDS011;10455;48.732;10.266;2023-08-01T13:20:48;3.80;;;2.17;;
20593;SDS011;10455;48.732;10.266;2023-08-01T13:25:50;2.05;;;1.90;;
20593;SDS011;10455;48.732;10.266;2023-08-01T13:30:52;1.95;;;1.85;;
20593;SDS011;10455;48.732;10.266;2023-08-01T13:35:56;3.13;;;2.17;;
20593;SDS011;10455;48.732;10.266;2023-08-01T13:40:59;2.33;;;2.13;;
20593;SDS011;10455;48.732;10.266;2023-08-01T13:46:07;2.95;;;2.20;;
20593;SDS011;10455;48.732;10.266;2023-08-01T13:51:12;2.10;;;2.00;;
20593;SDS011;10455;48.732;10.266;2023-08-01T13:56:14;2.33;;;2.13;;
20593;SDS011;10455;48.732;10.266;2023-08-01T14:01:16;2.75;;;1.98;;
20593;SDS011;10455;48.732;10.266;2023-08-01T14:06:20;2.50;;;1.92;;
20593;SDS011;10455;48.732;10.266;2023-08-01T14:11:22;1.92;;;1.83;;
20593;SDS011;10455;48.732;10.266;2023-08-01T14:16:24;2.30;;;2.10;;
20593;SDS011;10455;48.732;10.266;2023-08-01T14:21:28;2.78;;;2.20;;
20593;SDS011;10455;48.732;10.266;2023-08-01T14:26:30;2.03;;;1.90;;
20593;SDS011;10455;48.732;10.266;2023-08-01T14:31:31;3.13;;;2.00;;
20593;SDS011;10455;48.732;10.266;2023-08-01T14:36:35;2.45;;;2.20;;
20593;SDS011;10455;48.732;10.266;2023-08-01T14:41:37;2.38;;;2.15;;
20593;SDS011;10455;48.732;10.266;2023-08-01T14:46:39;2.78;;;1.98;;
20593;SDS011;10455;48.732;10.266;2023-08-01T14:51:42;2.30;;;2.10;;
20593;SDS011;10455;48.732;10.266;2023-08-01T14:56:44;3.25;;;2.20;;
20593;SDS011;10455;48.732;10.266;2023-08-01T15:01:46;3.17;;;2.88;;
20593;SDS011;10455;48.732;10.266;2023-08-01T15:06:49;3.17;;;2.95;;
20593;SDS011;10455;48.732;10.266;2023-08-01T15:11:51;3.13;;;2.80;;
20593;SDS011;10455;48.732;10.266;2023-08-01T15:16:53;3.22;;;2.92;;
20593;SDS011;10455;48.732;10.266;2023-08-01T15:21:56;3.10;;;2.90;;
20593;SDS011;10455;48.732;10.266;2023-08-01T15:26:58;3.75;;;3.03;;
20593;SDS011;10455;48.732;10.266;2023-08-01T15:32:00;3.08;;;2.88;;
20593;SDS011;10455;48.732;10.266;2023-08-01T15:37:04;4.15;;;2.58;;
20593;SDS011;10455;48.732;10.266;2023-08-01T15:42:08;3.30;;;2.90;;
20593;SDS011;10455;48.732;10.266;2023-08-01T15:47:10;3.65;;;2.88;;
20593;SDS011;10455;48.732;10.266;2023-08-01T15:52:14;4.38;;;2.90;;
20593;SDS011;10455;48.732;10.266;2023-08-01T15:57:15;3.80;;;2.80;;
20593;SDS011;10455;48.732;10.266;2023-08-01T16:02:19;2.67;;;2.47;;
20593;SDS011;10455;48.732;10.266;2023-08-01T16:07:23;2.90;;;2.70;;
20593;SDS011;10455;48.732;10.266;2023-08-01T16:12:25;2.60;;;2.40;;
20593;SDS011;10455;48.732;10.266;2023-08-01T16:17:26;3.50;;;2.50;;
20593;SDS011;10455;48.732;10.266;2023-08-01T16:22:30;2.90;;;2.70;;
20593;SDS011;10455;48.732;10.266;2023-08-01T16:27:32;3.28;;;2.90;;
20593;SDS011;10455;48.732;10.266;2023-08-01T16:32:34;3.03;;;2.72;;
20593;SDS011;10455;48.732;10.266;2023-08-01T16:37:37;3.17;;;2.97;;
20593;SDS011;10455;48.732;10.266;2023-08-01T16:42:40;3.38;;;3.10;;
20593;SDS011;10455;48.732;10.266;2023-08-01T16:47:42;2.90;;;2.70;;
20593;SDS011;10455;48.732;10.266;2023-08-01T16:52:45;2.90;;;2.70;;
20593;SDS011;10455;48.732;10.266;2023-08-01T16:57:47;4.90;;;3.17;;
20593;SDS011;10455;48.732;10.266;2023-08-01T17:02:49;3.05;;;2.80;;
20593;SDS011;10455;48.732;10.266;2023-08-01T17:07:53;3.67;;;3.10;;
20593;SDS011;10455;48.732;10.266;2023-08-01T17:12:55;3.40;;;3.10;;
20593;SDS011;10455;48.732;10.266;2023-08-01T17:17:57;3.35;;;3.10;;
20593;SDS011;10455;48.732;10.266;2023-08-01T17:23:00;3.10;;;2.90;;
20593;SDS011;10455;48.732;10.266;2023-08-01T17:28:02;3.20;;;2.97;;
20593;SDS011;10455;48.732;10.266;2023-08-01T17:33:04;3.05;;;2.80;;
20593;SDS011;10455;48.732;10.266;2023-08-01T17:38:08;3.72;;;3.10;;
20593;SDS011;10455;48.732;10.266;2023-08-01T17:43:10;3.10;;;2.90;;
20593;SDS011;10455;48.732;10.266;2023-08-01T17:48:12;3.10;;;2.90;;
20593;SDS011;10455;48.732;10.266;2023-08-01T17:53:16;4.38;;;3.08;;
20593;SDS011;10455;48.732;10.266;2023-08-01T17:58:18;3.15;;;2.95;;
20593;SDS011;10455;48.732;10.266;2023-08-01T18:03:20;3.38;;;3.08;;
20593;SDS011;10455;48.732;10.266;2023-08-01T18:08:23;3.45;;;2.90;;
20593;SDS011;10455;48.732;10.266;2023-08-01T18:13:25;3.58;;;3.10;;
20593;SDS011;10455;48.732;10.266;2023-08-01T18:18:27;4.80;;;3.17;;
20593;SDS011;10455;48.732;10.266;2023-08-01T18:23:30;4.82;;;3.28;;
20593;SDS011;10455;48.732;10.266;2023-08-01T18:28:32;3.72;;;3.40;;
20593;SDS011;10455;48.732;10.266;2023-08-01T18:33:34;3.70;;;3.30;;
20593;SDS011;10455;48.732;10.266;2023-08-01T18:38:38;4.25;;;3.53;;
20593;SDS011;10455;48.732;10.266;2023-08-01T18:43:41;2.92;;;2.72;;
20593;SDS011;10455;48.732;10.266;2023-08-01T18:48:43;4.60;;;4.20;;
20593;SDS011;10455;48.732;10.266;2023-08-01T18:53:48;4.50;;;4.20;;
20593;SDS011;10455;48.732;10.266;2023-08-01T18:58:50;4.50;;;4.20;;
20593;SDS011;10455;48.732;10.266;2023-08-01T19:03:52;4.40;;;4.00;;
20593;SDS011;10455;48.732;10.266;2023-08-01T19:08:56;6.00;;;5.50;;
20593;SDS011;10455;48.732;10.266;2023-08-01T19:13:58;5.32;;;5.03;;
20593;SDS011;10455;48.732;10.266;2023-08-01T19:19:00;5.47;;;4.70;;
20593;SDS011;10455;48.732;10.266;2023-08-01T19:24:04;4.90;;;4.50;;
20593;SDS011;10455;48.732;10.266;2023-08-01T19:29:06;5.35;;;4.88;;
20593;SDS011;10455;48.732;10.266;2023-08-01T19:34:09;5.00;;;4.50;;
20593;SDS011;10455;48.732;10.266;2023-08-01T19:39:12;4.10;;;3.80;;
20593;SDS011;10455;48.732;10.266;2023-08-01T19:44:15;3.83;;;3.53;;
20593;SDS011;10455;48.732;10.266;2023-08-01T19:49:16;4.45;;;3.97;;
20593;SDS011;10455;48.732;10.266;2023-08-01T19:54:20;4.10;;;3.80;;
20593;SDS011;10455;48.732;10.266;2023-08-01T19:59:22;4.78;;;4.00;;
20593;SDS011;10455;48.732;10.266;2023-08-01T20:04:24;4.10;;;3.80;;
20593;SDS011;10455;48.732;10.266;2023-08-01T20:09:27;4.18;;;3.78;;
20593;SDS011;10455;48.732;10.266;2023-08-01T20:14:29;4.45;;;3.95;;
20593;SDS011;10455;48.732;10.266;2023-08-01T20:19:31;4.20;;;3.90;;
20593;SDS011;10455;48.732;10.266;2023-08-01T20:24:41;4.32;;;3.80;;
20593;SDS011;10455;48.732;10.266;2023-08-01T20:29:43;5.07;;;3.90;;
20593;SDS011;10455;48.732;10.266;2023-08-01T20:34:45;5.35;;;4.35;;
20593;SDS011;10455;48.732;10.266;2023-08-01T20:39:48;7.50;;;3.60;;
20593;SDS011;10455;48.732;10.266;2023-08-01T20:44:50;3.90;;;3.60;;
20593;SDS011;10455;48.732;10.266;2023-08-01T20:49:52;3.78;;;2.90;;
20593;SDS011;10455;48.732;10.266;2023-08-01T20:54:55;7.05;;;3.00;;
20593;SDS011;10455;48.732;10.266;2023-08-01T20:59:57;4.47;;;2.63;;
20593;SDS011;10455;48.732;10.266;2023-08-01T21:04:59;3.35;;;2.85;;
20593;SDS011;10455;48.732;10.266;2023-08-01T21:10:03;4.28;;;3.33;;
20593;SDS011;10455;48.732;10.266;2023-08-01T21:15:05;4.32;;;3.42;;
20593;SDS011;10455;48.732;10.266;2023-08-01T21:20:08;4.50;;;3.50;;
20593;SDS011;10455;48.732;10.266;2023-08-01T21:25:14;6.43;;;3.78;;
20593;SDS011;10455;48.732;10.266;2023-08-01T21:30:16;3.50;;;3.20;;
20593;SDS011;10455;48.732;10.266;2023-08-01T21:35:18;5.05;;;3.28;;
20593;SDS011;10455;48.732;10.266;2023-08-01T21:40:21;3.65;;;3.35;;
20593;SDS011;10455;48.732;10.266;2023-08-01T21:45:23;6.47;;;3.83;;
20593;SDS011;10455;48.732;10.266;2023-08-01T21:50:25;3.80;;;3.50;;
20593;SDS011;10455;48.732;10.266;2023-08-01T21:55:28;4.65;;;3.55;;
20593;SDS011;10455;48.732;10.266;2023-08-01T22:00:30;7.93;;;4.32;;
20593;SDS011;10455;48.732;10.266;2023-08-01T22:05:32;5.03;;;3.60;;
20593;SDS011;10455;48.732;10.266;2023-08-01T22:10:35;4.40;;;4.10;;
20593;SDS011;10455;48.732;10.266;2023-08-01T22:15:37;7.55;;;4.03;;
20593;SDS011;10455;48.732;10.266;2023-08-01T22:20:39;3.92;;;3.60;;
20593;SDS011;10455;48.732;10.266;2023-08-01T22:25:42;4.75;;;4.25;;
20593;SDS011;10455;48.732;10.266;2023-08-01T22:30:44;4.50;;;4.00;;
20593;SDS011;10455;48.732;10.266;2023-08-01T22:35:46;3.87;;;3.57;;
20593;SDS011;10455;48.732;10.266;2023-08-01T22:40:50;6.40;;;3.80;;
20593;SDS011;10455;48.732;10.266;2023-08-01T22:45:53;3.83;;;3.53;;
20593;SDS011;10455;48.732;10.266;2023-08-01T22:50:56;4.87;;;3.80;;
20593;SDS011;10455;48.732;10.266;2023-08-01T22:55:59;6.45;;;3.85;;
20593;SDS011;10455;48.732;10.266;2023-08-01T23:01:01;4.33;;;3.93;;
20593;SDS011;10455;48.732;10.266;2023-08-01T23:06:03;4.00;;;3.53;;
20593;SDS011;10455;48.732;10.266;2023-08-01T23:11:06;4.30;;;3.90;;
20593;SDS011;10455;48.732;10.266;2023-08-01T23:16:08;4.00;;;3.67;;
20593;SDS011;10455;48.732;10.266;2023-08-01T23:21:10;5.93;;;3.87;;
20593;SDS011;10455;48.732;10.266;2023-08-01T23:26:13;6.93;;;4.00;;
20593;SDS011;10455;48.732;10.266;2023-08-01T23:31:15;4.97;;;3.97;;
20593;SDS011;10455;48.732;10.266;2023-08-01T23:36:17;4.60;;;3.72;;
20593;SDS011;10455;48.732;10.266;2023-08-01T23:41:20;5.97;;;4.27;;
20593;SDS011;10455;48.732;10.266;2023-08-01T23:46:22;6.13;;;3.93;;
20593;SDS011;10455;48.732;10.266;2023-08-01T23:51:24;5.13;;;3.63;;
20593;SDS011;10455;48.732;10.266;2023-08-01T23:56:28;5.30;;;3.70;;
